• location
  • image
mod_vvisit_countermod_vvisit_countermod_vvisit_countermod_vvisit_countermod_vvisit_countermod_vvisit_counter
mod_vvisit_counterToday71
mod_vvisit_counterYesterday592
mod_vvisit_counterThis week2934
mod_vvisit_counterLast week4997
mod_vvisit_counterThis month13840
mod_vvisit_counterLast month19158
mod_vvisit_counterAll days757890

We have: 10 guests, 1 bots online
Your IP: 54.80.236.48
 , 
Today: Oct 21, 2017
Airport / Company

Company

Municipal company Siauliu oro uostas.

In November 2003, under the decision of Siauliai City Municipality Council, municipal company Siauliu Oro Uostas was set up. Under the resolution of the Lithuanian Government, the company was granted the right to serve civil transport in Siauliai Military Aerodrome.

The company is a limited liability public entity.

The main objective  – to provide public passenger and cargo air transportation services.

The company’s main activities include airport operations and air transport services.

Currently, 21 employees work for the company.

Organisation chart of the company is given below:

 

Today

Saturday, 21 October 2017

Weather Forecast

Siauliai °C
   

Aviation Weather Forecast

[source: ADDS]
METAR
EYSA 210020Z AUTO 10008KT 9999NDV NSC 07/04 Q1020 =
TAF
TAF EYSA 202310Z 2100/2109 09010KT 5000 RA BR OVC010 TEMPO 2103/2109 3000 SHRA SCT005 BKN015CB =
SR / SS: 05:10 / 15:14 UTC (EYSA 2017-10-21)

Search

Who's Online

We have 10 guests online

tic logo en